sensor_id;sensor_type;location;lat;lon;timestamp;P1;durP1;ratioP1;P2;durP2;ratioP2
5555;SDS011;2801;50.972;7.856;2023-09-19T00:01:00;4.78;;;1.98;;
5555;SDS011;2801;50.972;7.856;2023-09-19T00:03:27;3.17;;;1.77;;
5555;SDS011;2801;50.972;7.856;2023-09-19T00:05:55;7.90;;;2.13;;
5555;SDS011;2801;50.972;7.856;2023-09-19T00:08:24;4.45;;;1.98;;
5555;SDS011;2801;50.972;7.856;2023-09-19T00:10:51;3.85;;;1.75;;
5555;SDS011;2801;50.972;7.856;2023-09-19T00:13:19;5.63;;;1.92;;
5555;SDS011;2801;50.972;7.856;2023-09-19T00:15:47;5.25;;;1.80;;
5555;SDS011;2801;50.972;7.856;2023-09-19T00:18:16;6.60;;;2.00;;
5555;SDS011;2801;50.972;7.856;2023-09-19T00:20:48;6.35;;;1.65;;
5555;SDS011;2801;50.972;7.856;2023-09-19T00:23:17;4.32;;;2.35;;
5555;SDS011;2801;50.972;7.856;2023-09-19T00:25:46;4.43;;;1.83;;
5555;SDS011;2801;50.972;7.856;2023-09-19T00:28:13;4.95;;;1.80;;
5555;SDS011;2801;50.972;7.856;2023-09-19T00:30:42;4.95;;;1.92;;
5555;SDS011;2801;50.972;7.856;2023-09-19T00:33:10;7.03;;;1.80;;
5555;SDS011;2801;50.972;7.856;2023-09-19T00:35:52;3.00;;;1.80;;
5555;SDS011;2801;50.972;7.856;2023-09-19T00:38:21;8.27;;;1.90;;
5555;SDS011;2801;50.972;7.856;2023-09-19T00:40:53;5.15;;;1.60;;
5555;SDS011;2801;50.972;7.856;2023-09-19T00:43:26;5.00;;;1.60;;
5555;SDS011;2801;50.972;7.856;2023-09-19T00:45:55;6.72;;;1.88;;
5555;SDS011;2801;50.972;7.856;2023-09-19T00:48:24;5.13;;;1.67;;
5555;SDS011;2801;50.972;7.856;2023-09-19T00:50:54;5.88;;;2.00;;
5555;SDS011;2801;50.972;7.856;2023-09-19T00:53:23;4.95;;;1.90;;
5555;SDS011;2801;50.972;7.856;2023-09-19T00:55:51;3.30;;;1.70;;
5555;SDS011;2801;50.972;7.856;2023-09-19T00:58:19;4.00;;;1.65;;
5555;SDS011;2801;50.972;7.856;2023-09-19T01:00:48;2.60;;;1.60;;
5555;SDS011;2801;50.972;7.856;2023-09-19T01:03:16;4.10;;;1.50;;
5555;SDS011;2801;50.972;7.856;2023-09-19T01:05:45;4.78;;;1.48;;
5555;SDS011;2801;50.972;7.856;2023-09-19T01:08:12;4.20;;;1.60;;
5555;SDS011;2801;50.972;7.856;2023-09-19T01:11:25;3.78;;;1.55;;
5555;SDS011;2801;50.972;7.856;2023-09-19T01:32:01;6.50;;;1.60;;
5555;SDS011;2801;50.972;7.856;2023-09-19T01:34:45;3.05;;;1.50;;
5555;SDS011;2801;50.972;7.856;2023-09-19T01:37:17;9.55;;;1.98;;
5555;SDS011;2801;50.972;7.856;2023-09-19T01:39:47;3.90;;;1.70;;
5555;SDS011;2801;50.972;7.856;2023-09-19T01:42:42;7.38;;;2.00;;
5555;SDS011;2801;50.972;7.856;2023-09-19T01:48:34;7.82;;;1.73;;
5555;SDS011;2801;50.972;7.856;2023-09-19T01:51:18;8.18;;;2.30;;
5555;SDS011;2801;50.972;7.856;2023-09-19T01:54:03;4.68;;;1.75;;
5555;SDS011;2801;50.972;7.856;2023-09-19T01:59:50;6.55;;;1.73;;
5555;SDS011;2801;50.972;7.856;2023-09-19T02:02:26;7.05;;;2.10;;
5555;SDS011;2801;50.972;7.856;2023-09-19T02:04:56;10.73;;;2.10;;
5555;SDS011;2801;50.972;7.856;2023-09-19T02:07:23;10.95;;;2.47;;
5555;SDS011;2801;50.972;7.856;2023-09-19T02:09:50;5.32;;;1.52;;
5555;SDS011;2801;50.972;7.856;2023-09-19T02:12:17;7.20;;;1.75;;
5555;SDS011;2801;50.972;7.856;2023-09-19T02:14:44;7.70;;;2.13;;
5555;SDS011;2801;50.972;7.856;2023-09-19T02:17:11;6.18;;;1.95;;
5555;SDS011;2801;50.972;7.856;2023-09-19T02:19:38;7.15;;;1.98;;
5555;SDS011;2801;50.972;7.856;2023-09-19T02:22:07;5.35;;;1.85;;
5555;SDS011;2801;50.972;7.856;2023-09-19T02:24:37;9.38;;;2.00;;
5555;SDS011;2801;50.972;7.856;2023-09-19T02:27:06;8.65;;;1.90;;
5555;SDS011;2801;50.972;7.856;2023-09-19T02:29:34;9.45;;;1.90;;
5555;SDS011;2801;50.972;7.856;2023-09-19T02:32:01;5.68;;;1.80;;
5555;SDS011;2801;50.972;7.856;2023-09-19T02:34:30;6.13;;;1.58;;
5555;SDS011;2801;50.972;7.856;2023-09-19T02:36:57;8.65;;;1.75;;
5555;SDS011;2801;50.972;7.856;2023-09-19T02:39:24;7.25;;;1.75;;
5555;SDS011;2801;50.972;7.856;2023-09-19T02:41:51;4.93;;;1.70;;
5555;SDS011;2801;50.972;7.856;2023-09-19T02:44:22;7.40;;;2.55;;
5555;SDS011;2801;50.972;7.856;2023-09-19T02:46:50;6.00;;;1.67;;
5555;SDS011;2801;50.972;7.856;2023-09-19T02:49:17;7.28;;;1.70;;
5555;SDS011;2801;50.972;7.856;2023-09-19T02:51:44;7.65;;;2.03;;
5555;SDS011;2801;50.972;7.856;2023-09-19T02:54:12;8.50;;;1.90;;
5555;SDS011;2801;50.972;7.856;2023-09-19T02:56:39;8.77;;;1.98;;
5555;SDS011;2801;50.972;7.856;2023-09-19T02:59:07;11.55;;;2.20;;
5555;SDS011;2801;50.972;7.856;2023-09-19T03:01:36;7.03;;;2.00;;
5555;SDS011;2801;50.972;7.856;2023-09-19T03:04:04;4.90;;;1.60;;
5555;SDS011;2801;50.972;7.856;2023-09-19T03:06:34;7.38;;;1.70;;
5555;SDS011;2801;50.972;7.856;2023-09-19T03:09:01;7.88;;;1.90;;
5555;SDS011;2801;50.972;7.856;2023-09-19T03:11:32;5.28;;;1.70;;
5555;SDS011;2801;50.972;7.856;2023-09-19T03:13:59;6.40;;;1.55;;
5555;SDS011;2801;50.972;7.856;2023-09-19T03:16:26;6.10;;;1.88;;
5555;SDS011;2801;50.972;7.856;2023-09-19T03:18:53;6.47;;;1.95;;
5555;SDS011;2801;50.972;7.856;2023-09-19T03:21:20;5.18;;;1.63;;
5555;SDS011;2801;50.972;7.856;2023-09-19T03:23:48;5.07;;;1.90;;
5555;SDS011;2801;50.972;7.856;2023-09-19T03:26:15;6.00;;;1.90;;
5555;SDS011;2801;50.972;7.856;2023-09-19T03:28:43;7.70;;;1.75;;
5555;SDS011;2801;50.972;7.856;2023-09-19T03:31:12;5.72;;;1.77;;
5555;SDS011;2801;50.972;7.856;2023-09-19T03:33:39;8.93;;;2.45;;
5555;SDS011;2801;50.972;7.856;2023-09-19T03:36:07;10.60;;;2.58;;
5555;SDS011;2801;50.972;7.856;2023-09-19T03:38:34;9.82;;;2.35;;
5555;SDS011;2801;50.972;7.856;2023-09-19T03:41:01;5.53;;;1.60;;
5555;SDS011;2801;50.972;7.856;2023-09-19T03:43:29;5.47;;;1.98;;
5555;SDS011;2801;50.972;7.856;2023-09-19T03:46:00;8.73;;;2.17;;
5555;SDS011;2801;50.972;7.856;2023-09-19T03:48:32;12.25;;;2.20;;
5555;SDS011;2801;50.972;7.856;2023-09-19T03:51:00;8.15;;;2.20;;
5555;SDS011;2801;50.972;7.856;2023-09-19T03:53:26;11.50;;;2.45;;
5555;SDS011;2801;50.972;7.856;2023-09-19T03:55:53;7.85;;;2.25;;
5555;SDS011;2801;50.972;7.856;2023-09-19T03:58:21;8.65;;;2.10;;
5555;SDS011;2801;50.972;7.856;2023-09-19T04:00:48;8.15;;;2.63;;
5555;SDS011;2801;50.972;7.856;2023-09-19T04:03:16;5.75;;;2.00;;
5555;SDS011;2801;50.972;7.856;2023-09-19T04:05:47;12.32;;;2.55;;
5555;SDS011;2801;50.972;7.856;2023-09-19T04:08:14;9.30;;;2.10;;
5555;SDS011;2801;50.972;7.856;2023-09-19T04:10:44;8.75;;;2.45;;
5555;SDS011;2801;50.972;7.856;2023-09-19T04:13:12;8.45;;;2.30;;
5555;SDS011;2801;50.972;7.856;2023-09-19T04:15:39;9.88;;;2.53;;
5555;SDS011;2801;50.972;7.856;2023-09-19T04:18:07;10.43;;;2.10;;
5555;SDS011;2801;50.972;7.856;2023-09-19T04:20:34;9.93;;;2.10;;
5555;SDS011;2801;50.972;7.856;2023-09-19T04:23:01;9.82;;;1.92;;
5555;SDS011;2801;50.972;7.856;2023-09-19T04:25:28;9.82;;;2.00;;
5555;SDS011;2801;50.972;7.856;2023-09-19T04:27:55;15.48;;;2.30;;
5555;SDS011;2801;50.972;7.856;2023-09-19T04:30:22;9.80;;;2.40;;
5555;SDS011;2801;50.972;7.856;2023-09-19T04:32:49;9.73;;;2.05;;
5555;SDS011;2801;50.972;7.856;2023-09-19T04:35:18;5.43;;;1.98;;
5555;SDS011;2801;50.972;7.856;2023-09-19T04:37:45;5.47;;;2.28;;
5555;SDS011;2801;50.972;7.856;2023-09-19T04:40:12;9.93;;;2.03;;
5555;SDS011;2801;50.972;7.856;2023-09-19T04:42:39;10.45;;;2.03;;
5555;SDS011;2801;50.972;7.856;2023-09-19T04:45:08;9.02;;;2.20;;
5555;SDS011;2801;50.972;7.856;2023-09-19T04:47:36;12.13;;;2.22;;
5555;SDS011;2801;50.972;7.856;2023-09-19T04:50:08;9.90;;;1.85;;
5555;SDS011;2801;50.972;7.856;2023-09-19T04:52:43;7.03;;;1.80;;
5555;SDS011;2801;50.972;7.856;2023-09-19T04:55:12;9.57;;;2.50;;
5555;SDS011;2801;50.972;7.856;2023-09-19T04:57:47;9.48;;;2.05;;
5555;SDS011;2801;50.972;7.856;2023-09-19T05:00:17;6.85;;;1.80;;
5555;SDS011;2801;50.972;7.856;2023-09-19T05:02:55;11.05;;;2.40;;
5555;SDS011;2801;50.972;7.856;2023-09-19T05:05:24;5.45;;;1.73;;
5555;SDS011;2801;50.972;7.856;2023-09-19T05:07:52;6.95;;;1.83;;
5555;SDS011;2801;50.972;7.856;2023-09-19T05:10:22;14.10;;;2.13;;
5555;SDS011;2801;50.972;7.856;2023-09-19T05:12:52;8.45;;;2.13;;
5555;SDS011;2801;50.972;7.856;2023-09-19T05:15:20;6.70;;;1.73;;
5555;SDS011;2801;50.972;7.856;2023-09-19T05:17:48;10.15;;;1.77;;
5555;SDS011;2801;50.972;7.856;2023-09-19T05:20:22;4.20;;;1.58;;
5555;SDS011;2801;50.972;7.856;2023-09-19T05:23:03;8.90;;;2.15;;
5555;SDS011;2801;50.972;7.856;2023-09-19T05:25:39;9.60;;;2.03;;
5555;SDS011;2801;50.972;7.856;2023-09-19T05:28:07;7.97;;;1.75;;
5555;SDS011;2801;50.972;7.856;2023-09-19T05:30:38;12.85;;;1.95;;
5555;SDS011;2801;50.972;7.856;2023-09-19T05:33:06;9.38;;;1.73;;
5555;SDS011;2801;50.972;7.856;2023-09-19T05:35:34;6.47;;;1.70;;
5555;SDS011;2801;50.972;7.856;2023-09-19T05:38:06;10.63;;;1.90;;
5555;SDS011;2801;50.972;7.856;2023-09-19T05:40:39;10.18;;;1.67;;
5555;SDS011;2801;50.972;7.856;2023-09-19T05:43:11;10.95;;;1.77;;
5555;SDS011;2801;50.972;7.856;2023-09-19T05:45:42;5.30;;;1.60;;
5555;SDS011;2801;50.972;7.856;2023-09-19T05:48:10;9.70;;;2.67;;
5555;SDS011;2801;50.972;7.856;2023-09-19T05:50:39;12.32;;;2.00;;
5555;SDS011;2801;50.972;7.856;2023-09-19T05:53:06;9.82;;;2.00;;
5555;SDS011;2801;50.972;7.856;2023-09-19T05:55:34;7.78;;;1.92;;
5555;SDS011;2801;50.972;7.856;2023-09-19T05:58:01;8.50;;;1.80;;
5555;SDS011;2801;50.972;7.856;2023-09-19T06:00:30;8.10;;;2.20;;
5555;SDS011;2801;50.972;7.856;2023-09-19T06:02:58;17.17;;;2.03;;
5555;SDS011;2801;50.972;7.856;2023-09-19T06:05:26;8.93;;;1.85;;
5555;SDS011;2801;50.972;7.856;2023-09-19T06:07:55;8.52;;;2.10;;
5555;SDS011;2801;50.972;7.856;2023-09-19T06:10:27;8.77;;;2.05;;
5555;SDS011;2801;50.972;7.856;2023-09-19T06:12:55;7.63;;;2.10;;
5555;SDS011;2801;50.972;7.856;2023-09-19T06:15:24;8.90;;;2.10;;
5555;SDS011;2801;50.972;7.856;2023-09-19T06:17:53;5.78;;;2.00;;
5555;SDS011;2801;50.972;7.856;2023-09-19T06:20:23;10.80;;;2.47;;
5555;SDS011;2801;50.972;7.856;2023-09-19T06:22:52;6.65;;;1.77;;
5555;SDS011;2801;50.972;7.856;2023-09-19T06:25:20;6.63;;;2.00;;
5555;SDS011;2801;50.972;7.856;2023-09-19T06:27:49;10.55;;;2.50;;
5555;SDS011;2801;50.972;7.856;2023-09-19T06:30:21;11.15;;;2.10;;
5555;SDS011;2801;50.972;7.856;2023-09-19T06:32:57;7.30;;;1.90;;
5555;SDS011;2801;50.972;7.856;2023-09-19T06:35:26;11.05;;;2.03;;
5555;SDS011;2801;50.972;7.856;2023-09-19T06:37:56;9.85;;;1.85;;
5555;SDS011;2801;50.972;7.856;2023-09-19T06:40:25;11.80;;;2.38;;
5555;SDS011;2801;50.972;7.856;2023-09-19T06:42:52;7.03;;;2.00;;
5555;SDS011;2801;50.972;7.856;2023-09-19T06:45:20;7.40;;;2.03;;
5555;SDS011;2801;50.972;7.856;2023-09-19T06:47:49;6.55;;;2.13;;
5555;SDS011;2801;50.972;7.856;2023-09-19T06:50:18;6.65;;;1.67;;
5555;SDS011;2801;50.972;7.856;2023-09-19T06:52:50;9.30;;;1.70;;
5555;SDS011;2801;50.972;7.856;2023-09-19T06:55:20;9.15;;;2.13;;
5555;SDS011;2801;50.972;7.856;2023-09-19T06:57:51;8.45;;;1.95;;
5555;SDS011;2801;50.972;7.856;2023-09-19T07:00:20;6.40;;;2.00;;
5555;SDS011;2801;50.972;7.856;2023-09-19T07:02:55;8.45;;;2.00;;
5555;SDS011;2801;50.972;7.856;2023-09-19T07:05:30;7.05;;;1.85;;
5555;SDS011;2801;50.972;7.856;2023-09-19T07:08:01;9.10;;;1.83;;
5555;SDS011;2801;50.972;7.856;2023-09-19T07:10:28;5.68;;;1.80;;
5555;SDS011;2801;50.972;7.856;2023-09-19T07:13:00;7.70;;;1.92;;
5555;SDS011;2801;50.972;7.856;2023-09-19T07:15:31;12.00;;;2.20;;
5555;SDS011;2801;50.972;7.856;2023-09-19T07:18:05;5.50;;;1.92;;
5555;SDS011;2801;50.972;7.856;2023-09-19T07:20:37;7.38;;;1.58;;
5555;SDS011;2801;50.972;7.856;2023-09-19T07:23:05;9.68;;;1.90;;
5555;SDS011;2801;50.972;7.856;2023-09-19T07:25:32;9.80;;;1.88;;
5555;SDS011;2801;50.972;7.856;2023-09-19T07:28:02;7.97;;;1.88;;
5555;SDS011;2801;50.972;7.856;2023-09-19T07:30:29;5.68;;;1.60;;
5555;SDS011;2801;50.972;7.856;2023-09-19T07:32:56;4.90;;;1.90;;
5555;SDS011;2801;50.972;7.856;2023-09-19T07:35:24;9.13;;;1.60;;
5555;SDS011;2801;50.972;7.856;2023-09-19T07:37:52;10.30;;;2.03;;
5555;SDS011;2801;50.972;7.856;2023-09-19T07:40:19;8.23;;;1.83;;
5555;SDS011;2801;50.972;7.856;2023-09-19T07:42:50;5.95;;;1.88;;
5555;SDS011;2801;50.972;7.856;2023-09-19T07:45:17;6.22;;;2.05;;
5555;SDS011;2801;50.972;7.856;2023-09-19T07:47:47;8.88;;;2.08;;
5555;SDS011;2801;50.972;7.856;2023-09-19T07:50:16;7.65;;;1.80;;
5555;SDS011;2801;50.972;7.856;2023-09-19T07:52:47;6.80;;;2.25;;
5555;SDS011;2801;50.972;7.856;2023-09-19T07:55:19;5.55;;;1.73;;
5555;SDS011;2801;50.972;7.856;2023-09-19T07:57:50;8.55;;;1.77;;
5555;SDS011;2801;50.972;7.856;2023-09-19T08:00:18;12.10;;;2.03;;
5555;SDS011;2801;50.972;7.856;2023-09-19T08:02:46;8.02;;;2.00;;
5555;SDS011;2801;50.972;7.856;2023-09-19T08:05:22;9.43;;;2.00;;
5555;SDS011;2801;50.972;7.856;2023-09-19T08:07:49;4.88;;;1.70;;
5555;SDS011;2801;50.972;7.856;2023-09-19T08:10:16;13.85;;;2.15;;
5555;SDS011;2801;50.972;7.856;2023-09-19T08:12:46;8.73;;;2.10;;
5555;SDS011;2801;50.972;7.856;2023-09-19T08:15:15;8.75;;;1.90;;
5555;SDS011;2801;50.972;7.856;2023-09-19T08:17:45;7.55;;;1.65;;
5555;SDS011;2801;50.972;7.856;2023-09-19T08:20:13;6.72;;;1.65;;
5555;SDS011;2801;50.972;7.856;2023-09-19T08:25:19;7.88;;;1.92;;
5555;SDS011;2801;50.972;7.856;2023-09-19T08:27:48;7.93;;;2.03;;
5555;SDS011;2801;50.972;7.856;2023-09-19T08:30:16;10.15;;;2.03;;
5555;SDS011;2801;50.972;7.856;2023-09-19T08:32:51;7.95;;;2.00;;
5555;SDS011;2801;50.972;7.856;2023-09-19T08:35:23;9.57;;;1.98;;
5555;SDS011;2801;50.972;7.856;2023-09-19T08:37:50;7.22;;;1.52;;
5555;SDS011;2801;50.972;7.856;2023-09-19T08:40:17;6.43;;;1.67;;
5555;SDS011;2801;50.972;7.856;2023-09-19T08:42:48;10.50;;;2.08;;
5555;SDS011;2801;50.972;7.856;2023-09-19T08:45:23;6.53;;;2.53;;
5555;SDS011;2801;50.972;7.856;2023-09-19T08:50:49;4.07;;;1.48;;
5555;SDS011;2801;50.972;7.856;2023-09-19T08:53:34;7.00;;;2.17;;
5555;SDS011;2801;50.972;7.856;2023-09-19T08:56:17;9.98;;;1.67;;
5555;SDS011;2801;50.972;7.856;2023-09-19T08:58:46;8.82;;;2.00;;
5555;SDS011;2801;50.972;7.856;2023-09-19T09:01:23;8.38;;;1.83;;
5555;SDS011;2801;50.972;7.856;2023-09-19T09:03:54;9.02;;;2.13;;
5555;SDS011;2801;50.972;7.856;2023-09-19T09:06:23;7.18;;;1.73;;
5555;SDS011;2801;50.972;7.856;2023-09-19T09:08:55;7.55;;;1.70;;
5555;SDS011;2801;50.972;7.856;2023-09-19T09:11:22;7.63;;;1.98;;
5555;SDS011;2801;50.972;7.856;2023-09-19T09:13:51;4.88;;;1.50;;
5555;SDS011;2801;50.972;7.856;2023-09-19T09:16:18;7.75;;;1.80;;
5555;SDS011;2801;50.972;7.856;2023-09-19T09:18:46;5.30;;;1.38;;
5555;SDS011;2801;50.972;7.856;2023-09-19T09:21:20;8.57;;;1.80;;
5555;SDS011;2801;50.972;7.856;2023-09-19T09:23:51;6.70;;;1.98;;
5555;SDS011;2801;50.972;7.856;2023-09-19T09:29:05;5.82;;;1.90;;
5555;SDS011;2801;50.972;7.856;2023-09-19T09:31:32;8.65;;;1.88;;
5555;SDS011;2801;50.972;7.856;2023-09-19T09:33:59;6.25;;;2.13;;
5555;SDS011;2801;50.972;7.856;2023-09-19T09:36:40;7.18;;;1.90;;
5555;SDS011;2801;50.972;7.856;2023-09-19T09:39:08;6.80;;;1.98;;
5555;SDS011;2801;50.972;7.856;2023-09-19T09:41:43;6.28;;;1.70;;
5555;SDS011;2801;50.972;7.856;2023-09-19T09:44:12;8.98;;;2.10;;
5555;SDS011;2801;50.972;7.856;2023-09-19T09:46:45;7.93;;;1.80;;
5555;SDS011;2801;50.972;7.856;2023-09-19T09:49:24;9.30;;;1.80;;
5555;SDS011;2801;50.972;7.856;2023-09-19T09:52:04;10.25;;;2.03;;
5555;SDS011;2801;50.972;7.856;2023-09-19T09:55:01;7.15;;;1.60;;
5555;SDS011;2801;50.972;7.856;2023-09-19T09:57:32;6.35;;;1.40;;
5555;SDS011;2801;50.972;7.856;2023-09-19T10:00:00;6.95;;;1.77;;
5555;SDS011;2801;50.972;7.856;2023-09-19T10:02:46;5.72;;;1.55;;
5555;SDS011;2801;50.972;7.856;2023-09-19T10:07:55;7.47;;;1.90;;
5555;SDS011;2801;50.972;7.856;2023-09-19T10:10:34;8.93;;;2.00;;
5555;SDS011;2801;50.972;7.856;2023-09-19T10:13:12;7.50;;;1.83;;
5555;SDS011;2801;50.972;7.856;2023-09-19T10:15:47;5.50;;;1.63;;
5555;SDS011;2801;50.972;7.856;2023-09-19T10:18:19;6.78;;;1.65;;
5555;SDS011;2801;50.972;7.856;2023-09-19T10:20:53;6.53;;;1.25;;
5555;SDS011;2801;50.972;7.856;2023-09-19T10:23:21;9.65;;;1.88;;
5555;SDS011;2801;50.972;7.856;2023-09-19T10:25:50;7.57;;;1.67;;
5555;SDS011;2801;50.972;7.856;2023-09-19T10:28:19;4.22;;;1.55;;
5555;SDS011;2801;50.972;7.856;2023-09-19T10:30:51;7.70;;;1.67;;
5555;SDS011;2801;50.972;7.856;2023-09-19T10:33:20;7.45;;;1.73;;
5555;SDS011;2801;50.972;7.856;2023-09-19T10:35:58;5.28;;;1.58;;
5555;SDS011;2801;50.972;7.856;2023-09-19T10:38:27;9.30;;;1.70;;
5555;SDS011;2801;50.972;7.856;2023-09-19T10:40:56;5.97;;;1.52;;
5555;SDS011;2801;50.972;7.856;2023-09-19T10:43:31;4.40;;;1.20;;
5555;SDS011;2801;50.972;7.856;2023-09-19T10:46:06;9.40;;;1.75;;
5555;SDS011;2801;50.972;7.856;2023-09-19T10:48:37;6.03;;;1.65;;
5555;SDS011;2801;50.972;7.856;2023-09-19T10:51:14;4.38;;;1.20;;
5555;SDS011;2801;50.972;7.856;2023-09-19T10:56:27;5.68;;;1.70;;
5555;SDS011;2801;50.972;7.856;2023-09-19T11:01:45;4.95;;;1.48;;
5555;SDS011;2801;50.972;7.856;2023-09-19T11:04:41;6.80;;;1.85;;
5555;SDS011;2801;50.972;7.856;2023-09-19T11:07:09;4.82;;;1.40;;
5555;SDS011;2801;50.972;7.856;2023-09-19T11:09:54;6.15;;;1.20;;
5555;SDS011;2801;50.972;7.856;2023-09-19T11:15:02;8.15;;;2.00;;
5555;SDS011;2801;50.972;7.856;2023-09-19T11:30:42;5.03;;;1.50;;
5555;SDS011;2801;50.972;7.856;2023-09-19T11:33:16;3.70;;;1.30;;
5555;SDS011;2801;50.972;7.856;2023-09-19T11:46:33;15.88;;;3.17;;
5555;SDS011;2801;50.972;7.856;2023-09-19T11:49:07;16.05;;;2.15;;
5555;SDS011;2801;50.972;7.856;2023-09-19T11:51:41;7.10;;;1.75;;
5555;SDS011;2801;50.972;7.856;2023-09-19T11:54:11;7.15;;;2.17;;
5555;SDS011;2801;50.972;7.856;2023-09-19T11:56:44;3.83;;;1.58;;
5555;SDS011;2801;50.972;7.856;2023-09-19T11:59:38;3.47;;;1.35;;
5555;SDS011;2801;50.972;7.856;2023-09-19T12:02:06;10.48;;;1.42;;
5555;SDS011;2801;50.972;7.856;2023-09-19T12:07:08;6.15;;;1.35;;
5555;SDS011;2801;50.972;7.856;2023-09-19T12:09:41;5.20;;;1.17;;
5555;SDS011;2801;50.972;7.856;2023-09-19T12:12:10;6.85;;;1.60;;
5555;SDS011;2801;50.972;7.856;2023-09-19T12:14:49;6.13;;;1.63;;
5555;SDS011;2801;50.972;7.856;2023-09-19T12:17:17;5.63;;;1.52;;
5555;SDS011;2801;50.972;7.856;2023-09-19T12:19:55;5.72;;;1.60;;
5555;SDS011;2801;50.972;7.856;2023-09-19T12:22:23;3.42;;;1.67;;
5555;SDS011;2801;50.972;7.856;2023-09-19T12:24:51;5.47;;;1.75;;
5555;SDS011;2801;50.972;7.856;2023-09-19T12:27:21;7.30;;;1.52;;
5555;SDS011;2801;50.972;7.856;2023-09-19T12:29:48;5.70;;;1.58;;
5555;SDS011;2801;50.972;7.856;2023-09-19T12:32:16;4.53;;;1.40;;
5555;SDS011;2801;50.972;7.856;2023-09-19T12:34:51;10.13;;;2.03;;
5555;SDS011;2801;50.972;7.856;2023-09-19T12:37:21;4.10;;;1.40;;
5555;SDS011;2801;50.972;7.856;2023-09-19T12:39:49;6.25;;;1.65;;
5555;SDS011;2801;50.972;7.856;2023-09-19T12:42:25;7.03;;;1.98;;
5555;SDS011;2801;50.972;7.856;2023-09-19T12:45:01;5.20;;;2.13;;
5555;SDS011;2801;50.972;7.856;2023-09-19T12:47:35;5.25;;;1.80;;
5555;SDS011;2801;50.972;7.856;2023-09-19T12:50:09;6.13;;;1.73;;
5555;SDS011;2801;50.972;7.856;2023-09-19T12:52:48;5.00;;;1.70;;
5555;SDS011;2801;50.972;7.856;2023-09-19T12:55:20;4.47;;;1.70;;
5555;SDS011;2801;50.972;7.856;2023-09-19T13:00:39;3.63;;;1.50;;
5555;SDS011;2801;50.972;7.856;2023-09-19T13:05:55;4.18;;;1.80;;
5555;SDS011;2801;50.972;7.856;2023-09-19T13:08:32;5.65;;;1.83;;
5555;SDS011;2801;50.972;7.856;2023-09-19T13:13:45;7.05;;;1.70;;
5555;SDS011;2801;50.972;7.856;2023-09-19T13:16:20;7.10;;;1.92;;
5555;SDS011;2801;50.972;7.856;2023-09-19T13:18:54;4.50;;;1.65;;
5555;SDS011;2801;50.972;7.856;2023-09-19T13:21:29;4.20;;;1.42;;
5555;SDS011;2801;50.972;7.856;2023-09-19T13:24:19;5.53;;;1.38;;
5555;SDS011;2801;50.972;7.856;2023-09-19T13:26:56;5.32;;;1.80;;
5555;SDS011;2801;50.972;7.856;2023-09-19T13:29:23;3.33;;;1.20;;
5555;SDS011;2801;50.972;7.856;2023-09-19T13:31:51;5.68;;;2.08;;
5555;SDS011;2801;50.972;7.856;2023-09-19T13:34:21;5.35;;;1.70;;
5555;SDS011;2801;50.972;7.856;2023-09-19T13:36:49;5.25;;;1.42;;
5555;SDS011;2801;50.972;7.856;2023-09-19T13:39:16;3.53;;;1.23;;
5555;SDS011;2801;50.972;7.856;2023-09-19T13:41:44;4.45;;;1.30;;
5555;SDS011;2801;50.972;7.856;2023-09-19T13:44:14;4.75;;;1.50;;
5555;SDS011;2801;50.972;7.856;2023-09-19T13:46:43;5.28;;;1.40;;
5555;SDS011;2801;50.972;7.856;2023-09-19T13:49:12;3.65;;;1.40;;
5555;SDS011;2801;50.972;7.856;2023-09-19T13:51:39;3.55;;;1.58;;
5555;SDS011;2801;50.972;7.856;2023-09-19T13:54:10;6.47;;;1.83;;
5555;SDS011;2801;50.972;7.856;2023-09-19T13:56:38;9.00;;;1.73;;
5555;SDS011;2801;50.972;7.856;2023-09-19T13:59:06;3.78;;;1.23;;
5555;SDS011;2801;50.972;7.856;2023-09-19T14:01:33;3.67;;;1.30;;
5555;SDS011;2801;50.972;7.856;2023-09-19T14:04:00;5.20;;;1.02;;
5555;SDS011;2801;50.972;7.856;2023-09-19T14:06:28;5.38;;;1.40;;
5555;SDS011;2801;50.972;7.856;2023-09-19T14:08:55;4.93;;;1.45;;
5555;SDS011;2801;50.972;7.856;2023-09-19T14:11:22;5.00;;;1.20;;
5555;SDS011;2801;50.972;7.856;2023-09-19T14:13:49;4.47;;;1.02;;
5555;SDS011;2801;50.972;7.856;2023-09-19T14:16:20;4.90;;;0.90;;
5555;SDS011;2801;50.972;7.856;2023-09-19T14:18:50;5.50;;;1.38;;
5555;SDS011;2801;50.972;7.856;2023-09-19T14:21:18;4.32;;;1.00;;
5555;SDS011;2801;50.972;7.856;2023-09-19T14:23:45;5.95;;;1.10;;
5555;SDS011;2801;50.972;7.856;2023-09-19T14:26:12;3.20;;;1.05;;
5555;SDS011;2801;50.972;7.856;2023-09-19T14:28:39;4.88;;;1.02;;
5555;SDS011;2801;50.972;7.856;2023-09-19T14:31:07;5.35;;;1.20;;
5555;SDS011;2801;50.972;7.856;2023-09-19T14:33:36;6.10;;;1.23;;
5555;SDS011;2801;50.972;7.856;2023-09-19T14:36:05;3.00;;;0.85;;
5555;SDS011;2801;50.972;7.856;2023-09-19T14:38:37;3.22;;;1.02;;
5555;SDS011;2801;50.972;7.856;2023-09-19T14:41:05;4.57;;;1.13;;
5555;SDS011;2801;50.972;7.856;2023-09-19T14:43:33;4.28;;;0.85;;
5555;SDS011;2801;50.972;7.856;2023-09-19T14:46:03;4.70;;;0.90;;
5555;SDS011;2801;50.972;7.856;2023-09-19T14:48:31;4.10;;;1.05;;
5555;SDS011;2801;50.972;7.856;2023-09-19T14:51:04;4.07;;;1.05;;
5555;SDS011;2801;50.972;7.856;2023-09-19T14:53:35;2.45;;;0.82;;
5555;SDS011;2801;50.972;7.856;2023-09-19T14:56:06;4.68;;;1.13;;
5555;SDS011;2801;50.972;7.856;2023-09-19T14:58:35;3.28;;;0.70;;
5555;SDS011;2801;50.972;7.856;2023-09-19T15:01:06;3.85;;;0.90;;
5555;SDS011;2801;50.972;7.856;2023-09-19T15:03:41;2.10;;;0.60;;
5555;SDS011;2801;50.972;7.856;2023-09-19T15:06:09;3.78;;;0.98;;
5555;SDS011;2801;50.972;7.856;2023-09-19T15:08:41;3.88;;;0.88;;
5555;SDS011;2801;50.972;7.856;2023-09-19T15:11:14;4.75;;;1.08;;
5555;SDS011;2801;50.972;7.856;2023-09-19T15:13:44;2.15;;;0.93;;
5555;SDS011;2801;50.972;7.856;2023-09-19T15:16:13;4.47;;;1.27;;
5555;SDS011;2801;50.972;7.856;2023-09-19T15:18:41;2.70;;;0.73;;
5555;SDS011;2801;50.972;7.856;2023-09-19T15:21:14;3.80;;;1.25;;
5555;SDS011;2801;50.972;7.856;2023-09-19T15:23:42;3.83;;;0.90;;
5555;SDS011;2801;50.972;7.856;2023-09-19T15:26:12;2.83;;;1.00;;
5555;SDS011;2801;50.972;7.856;2023-09-19T15:28:47;2.38;;;0.82;;
5555;SDS011;2801;50.972;7.856;2023-09-19T15:31:14;4.95;;;0.98;;
5555;SDS011;2801;50.972;7.856;2023-09-19T15:33:42;4.20;;;1.10;;
5555;SDS011;2801;50.972;7.856;2023-09-19T15:36:13;5.47;;;0.90;;
5555;SDS011;2801;50.972;7.856;2023-09-19T15:39:01;5.75;;;1.20;;
5555;SDS011;2801;50.972;7.856;2023-09-19T15:41:34;4.65;;;0.98;;
5555;SDS011;2801;50.972;7.856;2023-09-19T15:44:13;3.45;;;0.80;;
5555;SDS011;2801;50.972;7.856;2023-09-19T15:46:42;3.90;;;0.90;;
5555;SDS011;2801;50.972;7.856;2023-09-19T15:49:11;3.08;;;0.93;;
5555;SDS011;2801;50.972;7.856;2023-09-19T15:51:39;6.07;;;1.30;;
5555;SDS011;2801;50.972;7.856;2023-09-19T15:54:13;4.30;;;1.00;;
5555;SDS011;2801;50.972;7.856;2023-09-19T15:56:42;3.13;;;1.05;;
5555;SDS011;2801;50.972;7.856;2023-09-19T15:59:10;4.10;;;0.88;;
5555;SDS011;2801;50.972;7.856;2023-09-19T16:01:39;3.60;;;0.93;;
5555;SDS011;2801;50.972;7.856;2023-09-19T16:04:08;3.75;;;0.90;;
5555;SDS011;2801;50.972;7.856;2023-09-19T16:06:36;4.70;;;0.90;;
5555;SDS011;2801;50.972;7.856;2023-09-19T16:09:04;1.70;;;0.80;;
5555;SDS011;2801;50.972;7.856;2023-09-19T16:11:32;1.95;;;0.85;;
5555;SDS011;2801;50.972;7.856;2023-09-19T16:14:04;2.70;;;0.90;;
5555;SDS011;2801;50.972;7.856;2023-09-19T16:16:36;3.25;;;1.00;;
5555;SDS011;2801;50.972;7.856;2023-09-19T16:19:04;1.52;;;0.80;;
5555;SDS011;2801;50.972;7.856;2023-09-19T16:21:36;5.05;;;1.25;;
5555;SDS011;2801;50.972;7.856;2023-09-19T16:24:07;4.90;;;1.15;;
5555;SDS011;2801;50.972;7.856;2023-09-19T16:26:36;2.63;;;1.00;;
5555;SDS011;2801;50.972;7.856;2023-09-19T16:29:06;3.38;;;1.08;;
5555;SDS011;2801;50.972;7.856;2023-09-19T16:31:34;3.50;;;0.90;;
5555;SDS011;2801;50.972;7.856;2023-09-19T16:34:01;10.20;;;1.45;;
5555;SDS011;2801;50.972;7.856;2023-09-19T16:36:29;6.78;;;1.23;;
5555;SDS011;2801;50.972;7.856;2023-09-19T16:38:58;5.72;;;1.23;;
5555;SDS011;2801;50.972;7.856;2023-09-19T16:41:26;4.10;;;1.15;;
5555;SDS011;2801;50.972;7.856;2023-09-19T16:43:53;3.75;;;0.82;;
5555;SDS011;2801;50.972;7.856;2023-09-19T16:46:20;5.93;;;1.13;;
5555;SDS011;2801;50.972;7.856;2023-09-19T16:48:47;3.85;;;0.90;;
5555;SDS011;2801;50.972;7.856;2023-09-19T16:51:20;2.85;;;1.13;;
5555;SDS011;2801;50.972;7.856;2023-09-19T16:53:47;6.10;;;0.80;;